»·PEaware :: UAL230 KLAS-KDEN

UAL230 :: KLAS-KDEN

FLIGHT INFORMATION

Flight Status: Arrived
Operator:
United Airlines
More flights by this operator :: More flights under this callsign
Pilot: Saso K. (7898)
Aircraft: AIRBUS A320
(A320)
More flights by this aircraft type
Origin: KLAS McCarran Intl
United States
Destination: KDEN Denver Intl
United States
More flights between these airports :: More routes between these airports
Route: TRALR7 DVC WOLLF TELLR2
File this flight plan on PilotEdge
Remarks: EET / KZDV0025
Altitude:
(Current/Filed)
35,000ft
Speed:
(Current/Filed)
435kts
Departed: 15-Jun-17 11:45 AM
Arrived: 15-Jun-17 01:14 PM
Distance/Time
Traveled:
544nm/1:29
Distance/Time
To Go:
Arrived

Flight Plot

Page will automatically refresh every two minutes.


Map Options




Map Legend


Flown Route
Filed Route
Departure Airport
Arrival Airport
Navaid (VOR, NDB)
Fix

Horizontal Profiles

Position Reports

Time Latitude Longitude Heading Altitude Ground
Speed
15-Jun-17 11:09 36.082938 -115.138764 226 2065ft 0kts
15-Jun-17 11:10 36.082938 -115.138764 226 2065ft 0kts
15-Jun-17 11:11 36.082938 -115.138764 226 2065ft 0kts
15-Jun-17 11:12 36.082938 -115.138764 226 2065ft 0kts
15-Jun-17 11:13 36.082938 -115.138764 226 2065ft 0kts
15-Jun-17 11:14 36.082938 -115.138764 226 2065ft 0kts
15-Jun-17 11:15 36.082938 -115.138764 226 2065ft 0kts
15-Jun-17 11:16 36.082938 -115.138764 226 2065ft 0kts
15-Jun-17 11:17 36.082938 -115.138764 226 2065ft 0kts
15-Jun-17 11:18 36.082938 -115.138764 226 2065ft 0kts
15-Jun-17 11:19 36.082938 -115.138764 226 2065ft 0kts
15-Jun-17 11:21 36.082938 -115.138764 226 2065ft 0kts
15-Jun-17 11:22 36.082938 -115.138764 226 2065ft 0kts
15-Jun-17 11:23 36.082938 -115.138764 226 2065ft 0kts
15-Jun-17 11:24 36.082938 -115.138764 226 2065ft 0kts
15-Jun-17 11:25 36.082938 -115.138764 226 2065ft 0kts
15-Jun-17 11:26 36.082938 -115.138764 226 2065ft 0kts
15-Jun-17 11:27 36.082938 -115.138764 226 2065ft 0kts
15-Jun-17 11:28 36.082938 -115.138764 226 2065ft 0kts
15-Jun-17 11:29 36.082938 -115.138764 226 2065ft 0kts
15-Jun-17 11:30 36.082938 -115.138764 226 2065ft 0kts
15-Jun-17 11:31 36.082938 -115.138764 226 2065ft 0kts
15-Jun-17 11:32 36.082938 -115.138764 226 2065ft 0kts
15-Jun-17 11:33 36.082938 -115.138764 226 2065ft 0kts
15-Jun-17 11:34 36.082938 -115.138764 226 2065ft 0kts
15-Jun-17 11:35 36.082938 -115.138764 226 2065ft 0kts
15-Jun-17 11:36 36.082938 -115.138764 226 2065ft 0kts
15-Jun-17 11:37 36.082938 -115.138764 226 2065ft 0kts
15-Jun-17 11:38 36.083059 -115.138605 226 2064ft 2kts
15-Jun-17 11:39 36.083534 -115.138285 181 2062ft 2kts
15-Jun-17 11:40 36.084198 -115.138257 176 2061ft 1kts
15-Jun-17 11:41 36.084312 -115.138466 92 2061ft 0kts
15-Jun-17 11:42 36.084225 -115.136510 91 2057ft 13kts
15-Jun-17 11:43 36.081952 -115.132966 182 2052ft 14kts
15-Jun-17 11:44 36.078311 -115.132679 111 2058ft 8kts
15-Jun-17 11:45 36.078248 -115.125799 89 2042ft 26kts
15-Jun-17 11:46 36.077348 -115.121431 155 2038ft 4kts
15-Jun-17 11:47 36.076403 -115.121597 269 2040ft 3kts
15-Jun-17 11:48 36.076343 -115.155840 269 2660ft 178kts
15-Jun-17 11:49 36.076350 -115.221648 268 5044ft 223kts
15-Jun-17 11:50 36.027450 -115.275444 201 6912ft 283kts
15-Jun-17 11:51 35.951776 -115.294194 164 7158ft 288kts
15-Jun-17 11:52 35.880799 -115.260298 135 9892ft 300kts
15-Jun-17 11:53 35.865436 -115.153921 91 11657ft 360kts
15-Jun-17 11:54 35.881113 -115.031529 61 13850ft 384kts
15-Jun-17 11:55 35.933360 -114.915659 61 16087ft 398kts
15-Jun-17 11:56 35.983508 -114.791958 64 18143ft 411kts
15-Jun-17 11:57 36.033244 -114.663097 64 20037ft 424kts
15-Jun-17 11:58 36.084433 -114.529911 64 21796ft 436kts
15-Jun-17 11:59 36.133556 -114.401561 64 23325ft 447kts
15-Jun-17 12:00 36.185568 -114.265758 67 24760ft 457kts
15-Jun-17 12:01 36.209860 -114.110637 82 26082ft 466kts
15-Jun-17 12:02 36.228662 -113.951456 82 27332ft 474kts
15-Jun-17 12:03 36.247622 -113.789219 82 28483ft 483kts
15-Jun-17 12:04 36.266664 -113.624265 82 29533ft 490kts
15-Jun-17 12:05 36.285582 -113.458329 81 30932ft 487kts
15-Jun-17 12:06 36.304205 -113.295193 82 32167ft 487kts
15-Jun-17 12:07 36.344797 -113.137128 64 33304ft 485kts
15-Jun-17 12:08 36.400929 -112.986240 64 34396ft 484kts
15-Jun-17 12:09 36.456684 -112.835338 63 35184ft 485kts
15-Jun-17 12:10 36.512337 -112.683983 63 35189ft 485kts
15-Jun-17 12:11 36.568018 -112.531809 63 35196ft 485kts
15-Jun-17 12:12 36.623321 -112.379924 63 35270ft 485kts
15-Jun-17 12:13 36.678077 -112.230104 64 35263ft 485kts
15-Jun-17 12:14 36.731595 -112.081703 64 35193ft 485kts
15-Jun-17 12:15 36.785585 -111.931239 64 35124ft 485kts
15-Jun-17 12:16 36.839331 -111.780715 64 35125ft 486kts
15-Jun-17 12:16 36.884435 -111.653821 64 35120ft 486kts
15-Jun-17 12:17 36.938303 -111.501568 64 35121ft 486kts
15-Jun-17 12:18 36.992513 -111.347567 64 35138ft 485kts
15-Jun-17 12:19 37.044604 -111.200209 64 35163ft 479kts
15-Jun-17 12:20 37.097328 -111.048932 64 35141ft 472kts
15-Jun-17 12:21 37.144770 -110.912163 64 35086ft 468kts
15-Jun-17 12:23 37.203925 -110.740740 64 35062ft 467kts
15-Jun-17 12:23 37.246542 -110.616624 64 35081ft 468kts
15-Jun-17 12:24 37.297859 -110.466481 64 35224ft 469kts
15-Jun-17 12:25 37.345016 -110.328060 64 35285ft 470kts
15-Jun-17 12:26 37.396580 -110.176913 65 35288ft 470kts
15-Jun-17 12:27 37.447319 -110.026230 65 35285ft 471kts
15-Jun-17 12:28 37.497740 -109.875723 64 35282ft 471kts
15-Jun-17 12:29 37.547870 -109.725310 64 35279ft 471kts
15-Jun-17 12:30 37.597710 -109.574996 64 35278ft 471kts
15-Jun-17 12:31 37.647695 -109.423458 64 35277ft 471kts
15-Jun-17 12:32 37.687017 -109.304444 65 35274ft 471kts
15-Jun-17 12:33 37.736880 -109.152575 65 35265ft 471kts
15-Jun-17 12:34 37.786182 -109.000904 65 35239ft 473kts
15-Jun-17 12:35 37.846026 -108.855118 55 35227ft 472kts
15-Jun-17 12:36 37.914859 -108.714167 55 35239ft 474kts
15-Jun-17 12:37 37.983693 -108.572576 54 35243ft 474kts
15-Jun-17 12:38 38.051963 -108.431536 54 35272ft 473kts
15-Jun-17 12:39 38.107384 -108.316990 55 35344ft 473kts
15-Jun-17 12:40 38.171238 -108.184748 56 35306ft 473kts
15-Jun-17 12:41 38.239315 -108.042411 55 35193ft 473kts
15-Jun-17 12:42 38.307122 -107.900016 55 35184ft 473kts
15-Jun-17 12:43 38.374090 -107.758759 55 35191ft 473kts
15-Jun-17 12:44 38.441821 -107.615265 55 35194ft 473kts
15-Jun-17 12:45 38.507145 -107.470902 56 35218ft 474kts
15-Jun-17 12:46 38.573322 -107.333500 54 35290ft 472kts
15-Jun-17 12:47 38.640583 -107.191559 56 35311ft 472kts
15-Jun-17 12:48 38.703659 -107.044969 58 35305ft 473kts
15-Jun-17 12:49 38.766036 -106.898229 58 35286ft 474kts
15-Jun-17 12:50 38.828147 -106.751454 57 35294ft 478kts
15-Jun-17 12:51 38.892682 -106.604846 55 34479ft 476kts
15-Jun-17 12:52 38.959871 -106.459548 55 31889ft 480kts
15-Jun-17 12:53 39.021958 -106.324776 56 29419ft 481kts
15-Jun-17 12:54 39.085257 -106.185727 57 27415ft 466kts
15-Jun-17 12:55 39.139329 -106.064636 58 25643ft 453kts
15-Jun-17 12:56 39.200025 -105.926902 58 23567ft 438kts
15-Jun-17 12:57 39.258219 -105.794365 58 21539ft 423kts
15-Jun-17 12:58 39.314096 -105.666570 58 19611ft 407kts
15-Jun-17 12:59 39.361762 -105.557613 58 18969ft 366kts
15-Jun-17 13:00 39.396621 -105.448968 85 17993ft 344kts
15-Jun-17 13:01 39.401135 -105.338628 86 16600ft 341kts
15-Jun-17 13:02 39.406691 -105.222873 86 15503ft 341kts
15-Jun-17 13:03 39.411610 -105.113181 86 14611ft 302kts
15-Jun-17 13:04 39.416103 -105.010193 86 13507ft 286kts
15-Jun-17 13:05 39.421746 -104.912078 82 12656ft 270kts
15-Jun-17 13:06 39.429984 -104.818501 81 11607ft 266kts
15-Jun-17 13:07 39.445393 -104.729206 65 11053ft 262kts
15-Jun-17 13:08 39.495459 -104.677491 12 11038ft 241kts
15-Jun-17 13:09 39.554377 -104.663588 357 10715ft 217kts
15-Jun-17 13:10 39.610165 -104.663045 356 10486ft 187kts
15-Jun-17 13:11 39.660631 -104.662605 358 9155ft 183kts
15-Jun-17 13:12 39.710076 -104.661976 358 7835ft 178kts
15-Jun-17 13:13 39.757753 -104.661412 358 6815ft 161kts
15-Jun-17 13:14 39.798643 -104.660918 358 6028ft 145kts
15-Jun-17 13:15 39.837813 -104.660492 3 5414ft 111kts
15-Jun-17 13:16 39.849918 -104.662196 333 5405ft 17kts
15-Jun-17 13:17 39.852020 -104.663860 270 5413ft 13kts
15-Jun-17 13:18 39.852724 -104.668481 271 5405ft 18kts
15-Jun-17 13:19 39.852756 -104.672394 280 5398ft 1kts
15-Jun-17 13:20 39.853306 -104.672537 0 5399ft 0kts
15-Jun-17 13:21 39.853306 -104.672537 0 5399ft 0kts

Navigation Log

Ident Type
Flight plan parsing failed, navigation log unavailable